Time;durP1;ratioP1;P1;durP2;ratioP2;P2;SDS_P1;SDS_P2;PMS_P1;PMS_P2;Temp;Humidity;BMP_temperature;BMP_pressure;BME280_temperature;BME280_humidity;BME280_pressure;Samples;Min_cycle;Max_cycle;Signal;HPM_P1;HPM_P2
2021/07/30 00:02:21;;;;;;;3.33;2.28;;;13.80;99.90;;;;;;4911703;29;20067;-82
2021/07/30 00:04:47;;;;;;;5.28;1.88;;;13.80;99.90;;;;;;4911997;29;20032;-81
2021/07/30 00:07:13;;;;;;;3.92;2.38;;;13.90;99.90;;;;;;4911829;29;20064;-82
2021/07/30 00:09:39;;;;;;;4.45;2.20;;;13.80;99.90;;;;;;4911883;29;20040;-81
2021/07/30 00:12:06;;;;;;;4.88;2.05;;;13.70;99.90;;;;;;4911696;29;20083;-81
2021/07/30 00:14:32;;;;;;;4.20;2.58;;;13.70;99.90;;;;;;4911695;29;20066;-82
2021/07/30 00:16:57;;;;;;;4.43;2.63;;;13.70;99.90;;;;;;4926161;29;20043;-81
2021/07/30 00:19:23;;;;;;;5.05;2.40;;;13.70;99.90;;;;;;4930684;29;20038;-81
2021/07/30 00:21:49;;;;;;;4.88;2.08;;;13.60;99.90;;;;;;4930490;29;20064;-82
2021/07/30 00:24:15;;;;;;;3.53;1.92;;;13.60;99.90;;;;;;4930820;29;20036;-82
2021/07/30 00:26:40;;;;;;;6.18;2.17;;;13.60;99.90;;;;;;4914953;29;20059;-81
2021/07/30 00:29:06;;;;;;;4.88;2.33;;;13.60;99.90;;;;;;4930597;29;20047;-82
2021/07/30 00:31:32;;;;;;;5.50;2.38;;;13.70;99.90;;;;;;4930617;29;20055;-81
2021/07/30 00:33:57;;;;;;;6.47;1.90;;;13.60;99.90;;;;;;4947709;29;20068;-82
2021/07/30 00:36:23;;;;;;;5.22;2.38;;;13.60;99.90;;;;;;4909118;29;20036;-82
2021/07/30 00:38:49;;;;;;;3.35;1.55;;;13.60;99.90;;;;;;4911693;29;20037;-82
2021/07/30 00:41:15;;;;;;;5.35;2.03;;;13.60;99.90;;;;;;4928433;29;20115;-81
2021/07/30 00:43:40;;;;;;;5.30;2.42;;;13.50;99.90;;;;;;4912013;29;20061;-81
2021/07/30 00:46:07;;;;;;;3.80;1.80;;;13.50;99.90;;;;;;4928317;29;20032;-81
2021/07/30 00:48:33;;;;;;;3.67;2.10;;;13.40;99.90;;;;;;4916419;23;20052;-82
2021/07/30 00:51:00;;;;;;;5.78;1.98;;;13.40;99.90;;;;;;4877331;29;20047;-81
2021/07/30 00:53:27;;;;;;;4.00;2.28;;;13.40;99.90;;;;;;4877468;29;20067;-81
2021/07/30 00:55:57;;;;;;;4.78;2.05;;;13.40;99.90;;;;;;4880781;29;20041;-82
2021/07/30 00:58:22;;;;;;;;;;;13.40;99.90;;;;;;4881108;29;20047;-81
2021/07/30 01:00:48;;;;;;;5.35;2.05;;;13.40;99.90;;;;;;4896045;29;19911;-82
2021/07/30 01:03:14;;;;;;;5.57;2.38;;;13.40;99.90;;;;;;4880781;29;20044;-82
2021/07/30 01:05:39;;;;;;;5.90;2.40;;;13.30;99.90;;;;;;4880814;29;20091;-81
2021/07/30 01:08:05;;;;;;;5.43;2.40;;;13.30;99.90;;;;;;4880447;29;20485;-81
2021/07/30 01:10:31;;;;;;;4.15;2.00;;;13.30;99.90;;;;;;4880543;29;20064;-81
2021/07/30 01:12:57;;;;;;;5.97;2.58;;;13.30;99.90;;;;;;4896041;29;20029;-82
2021/07/30 01:15:23;;;;;;;3.25;2.10;;;13.30;99.90;;;;;;4882486;29;20501;-82
2021/07/30 01:17:49;;;;;;;7.50;2.72;;;13.30;99.90;;;;;;4914374;29;20059;-81
2021/07/30 01:20:15;;;;;;;9.15;2.60;;;13.30;99.90;;;;;;4914783;29;20047;-82
2021/07/30 01:23:00;;;;;;;3.03;2.22;;;13.20;99.90;;;;;;4914457;29;20029;-81
2021/07/30 01:25:28;;;;;;;6.68;2.42;;;13.10;99.90;;;;;;4914405;29;20032;-82
2021/07/30 01:27:55;;;;;;;6.47;2.40;;;13.20;99.90;;;;;;4914383;29;20028;-82
2021/07/30 01:30:23;;;;;;;5.82;2.08;;;13.10;99.90;;;;;;4914403;29;20028;-81
2021/07/30 01:32:49;;;;;;;5.07;2.13;;;13.10;99.90;;;;;;4898880;29;20035;-82
2021/07/30 01:35:16;;;;;;;4.43;2.38;;;13.10;99.90;;;;;;4914563;29;20048;-82
2021/07/30 01:37:42;;;;;;;5.25;2.08;;;13.10;99.90;;;;;;4907879;29;20033;-82
2021/07/30 01:40:12;;;;;;;8.85;3.58;;;13.00;99.90;;;;;;4893660;29;20052;-82
2021/07/30 01:42:39;;;;;;;4.55;2.05;;;13.10;99.90;;;;;;4892241;29;20033;-82
2021/07/30 01:45:09;;;;;;;8.15;2.53;;;13.00;99.90;;;;;;4892097;29;20074;-82
2021/07/30 01:47:35;;;;;;;5.90;2.47;;;13.00;99.90;;;;;;4892086;29;20060;-82
2021/07/30 01:50:01;;;;;;;4.60;1.92;;;13.00;99.90;;;;;;4892276;29;20059;-82
2021/07/30 01:52:27;;;;;;;9.25;1.98;;;13.00;99.90;;;;;;4892141;29;20029;-82
2021/07/30 01:54:53;;;;;;;9.77;2.35;;;12.90;99.90;;;;;;4892307;29;20405;-82
2021/07/30 01:57:19;;;;;;;5.15;2.17;;;12.90;99.90;;;;;;4892150;29;20037;-82
2021/07/30 01:59:45;;;;;;;4.43;2.40;;;13.00;99.90;;;;;;4876906;29;20072;-82
2021/07/30 02:02:11;;;;;;;5.50;2.22;;;13.00;99.90;;;;;;4907515;29;20036;-82
2021/07/30 02:04:37;;;;;;;6.43;1.90;;;12.90;99.90;;;;;;4891679;29;20045;-82
2021/07/30 02:07:03;;;;;;;5.72;2.78;;;12.90;99.90;;;;;;4876651;29;20099;-82
2021/07/30 02:09:32;;;;;;;6.82;2.20;;;12.90;99.90;;;;;;4891883;29;20041;-82
2021/07/30 02:11:58;;;;;;;5.45;2.35;;;12.90;99.90;;;;;;4876598;29;20025;-82
2021/07/30 02:14:25;;;;;;;5.47;1.90;;;12.90;99.90;;;;;;4876278;29;20037;-82
2021/07/30 02:16:53;;;;;;;7.03;2.40;;;12.90;99.90;;;;;;4903205;29;20108;-82
2021/07/30 02:19:20;;;;;;;4.78;2.53;;;12.90;99.90;;;;;;4898258;29;20036;-82
2021/07/30 02:21:51;;;;;;;4.97;2.50;;;12.90;99.90;;;;;;4897855;29;20032;-82
2021/07/30 02:24:17;;;;;;;3.63;1.95;;;12.80;99.90;;;;;;4913687;29;20047;-82
2021/07/30 02:26:43;;;;;;;5.07;2.50;;;12.80;99.90;;;;;;4913568;29;20040;-82
2021/07/30 02:29:08;;;;;;;4.68;2.13;;;12.80;99.90;;;;;;4913518;29;20491;-82
2021/07/30 02:31:34;;;;;;;3.40;2.30;;;12.80;99.90;;;;;;4913515;29;20056;-82
2021/07/30 02:34:00;;;;;;;5.75;2.13;;;12.70;99.90;;;;;;4913286;29;20032;-81
2021/07/30 02:36:25;;;;;;;4.03;1.83;;;12.70;99.90;;;;;;4907780;29;20537;-82
2021/07/30 02:38:51;;;;;;;4.95;2.35;;;12.70;99.90;;;;;;4894509;29;20057;-81
2021/07/30 02:41:17;;;;;;;3.58;2.00;;;12.70;99.90;;;;;;4879043;29;20036;-82
2021/07/30 02:43:44;;;;;;;3.28;2.13;;;12.70;99.90;;;;;;4894464;29;20072;-82
2021/07/30 02:46:10;;;;;;;5.68;2.33;;;12.70;99.90;;;;;;4894328;29;20040;-82
2021/07/30 02:48:36;;;;;;;5.60;2.08;;;12.70;99.90;;;;;;4878299;29;20123;-82
2021/07/30 02:51:02;;;;;;;3.38;1.55;;;12.70;99.90;;;;;;4894140;29;20068;-81
2021/07/30 02:53:28;;;;;;;4.55;2.10;;;12.70;99.90;;;;;;4894076;29;20521;-82
2021/07/30 02:55:54;;;;;;;5.32;2.00;;;12.60;99.90;;;;;;4894071;29;20099;-82
2021/07/30 02:58:19;;;;;;;2.83;2.00;;;12.70;99.90;;;;;;4894153;29;20057;-82
2021/07/30 03:00:45;;;;;;;6.45;2.45;;;12.70;99.90;;;;;;4910800;29;20036;-81
2021/07/30 03:03:11;;;;;;;6.38;2.30;;;12.60;99.90;;;;;;4878351;29;20043;-82
2021/07/30 03:05:36;;;;;;;7.03;2.00;;;12.60;99.90;;;;;;4894167;29;20029;-82
2021/07/30 03:08:02;;;;;;;6.88;2.15;;;12.60;99.90;;;;;;4893991;29;20538;-81
2021/07/30 03:10:27;;;;;;;4.57;2.08;;;12.60;99.90;;;;;;4893762;29;20080;-82
2021/07/30 03:12:53;;;;;;;3.75;1.98;;;12.70;99.90;;;;;;4878465;29;20024;-82
2021/07/30 03:15:19;;;;;;;6.05;2.03;;;12.60;99.90;;;;;;4895373;29;20056;-82
2021/07/30 03:17:44;;;;;;;4.40;2.05;;;12.60;99.90;;;;;;4911622;29;20059;-81
2021/07/30 03:20:10;;;;;;;7.15;3.03;;;12.50;99.90;;;;;;4912402;29;20035;-82
2021/07/30 03:22:36;;;;;;;6.28;2.92;;;12.50;99.90;;;;;;4912468;29;20032;-82
2021/07/30 03:25:02;;;;;;;4.15;1.67;;;12.50;99.90;;;;;;4912409;29;20107;-82
2021/07/30 03:27:28;;;;;;;5.93;2.53;;;12.50;99.90;;;;;;4896668;29;20028;-81
2021/07/30 03:29:53;;;;;;;6.97;2.55;;;12.50;99.90;;;;;;4912244;29;20064;-81
2021/07/30 03:32:19;;;;;;;7.22;2.45;;;12.50;99.90;;;;;;4912369;29;20043;-82
2021/07/30 03:34:48;;;;;;;4.50;2.17;;;12.50;99.90;;;;;;4911999;29;20044;-82
2021/07/30 03:37:14;;;;;;;5.50;2.60;;;12.40;99.90;;;;;;4884551;29;20088;-81
2021/07/30 03:39:40;;;;;;;4.18;1.85;;;12.50;99.90;;;;;;4877904;29;20032;-82
2021/07/30 03:42:07;;;;;;;5.43;2.53;;;12.50;99.90;;;;;;4893394;29;20048;-82
2021/07/30 03:44:32;;;;;;;5.60;2.25;;;12.50;99.90;;;;;;4893401;29;20043;-81
2021/07/30 03:46:58;;;;;;;8.10;2.53;;;12.50;99.90;;;;;;4893252;29;20063;-81
2021/07/30 03:49:24;;;;;;;6.63;2.75;;;12.50;99.90;;;;;;4875511;29;20068;-81
2021/07/30 03:51:50;;;;;;;7.03;2.47;;;12.40;99.90;;;;;;4893324;29;20036;-81
2021/07/30 03:54:17;;;;;;;5.90;2.90;;;12.50;99.90;;;;;;4877729;29;20040;-82
2021/07/30 03:56:43;;;;;;;6.07;3.00;;;12.50;99.90;;;;;;4877883;29;20235;-82
2021/07/30 03:59:09;;;;;;;6.07;3.35;;;12.50;99.90;;;;;;4893259;29;20493;-82
2021/07/30 04:01:35;;;;;;;6.78;3.50;;;12.60;99.90;;;;;;4877812;29;20061;-82
2021/07/30 04:04:01;;;;;;;4.90;3.45;;;12.50;99.90;;;;;;4877462;29;20050;-82
2021/07/30 04:06:27;;;;;;;7.95;3.65;;;12.60;99.90;;;;;;4877216;29;20044;-81
2021/07/30 04:08:53;;;;;;;6.50;3.33;;;12.60;99.90;;;;;;4877343;29;20036;-82
2021/07/30 04:11:19;;;;;;;7.93;3.83;;;12.70;99.90;;;;;;4892152;29;20131;-82
2021/07/30 04:13:48;;;;;;;7.78;4.90;;;12.70;99.90;;;;;;4909264;29;20037;-81
2021/07/30 04:16:14;;;;;;;8.50;3.40;;;12.80;99.90;;;;;;4901245;29;20469;-81
2021/07/30 04:18:40;;;;;;;6.30;2.60;;;12.80;99.90;;;;;;4911175;29;20351;-82
2021/07/30 04:21:06;;;;;;;5.57;2.58;;;12.80;99.90;;;;;;4910823;29;20043;-81
2021/07/30 04:23:52;;;;;;;5.97;2.72;;;12.90;99.90;;;;;;4911379;29;20028;-82
2021/07/30 04:26:18;;;;;;;5.13;2.80;;;12.90;99.90;;;;;;4854242;29;20048;-82
2021/07/30 04:28:43;;;;;;;7.68;4.22;;;13.00;99.90;;;;;;4856377;29;20121;-82
2021/07/30 04:31:09;;;;;;;8.20;5.35;;;13.00;99.90;;;;;;4857665;29;20082;-80
2021/07/30 04:33:35;;;;;;;8.98;6.28;;;13.00;99.90;;;;;;4853319;29;20096;-81
2021/07/30 04:36:03;;;;;;;9.77;6.38;;;13.10;99.90;;;;;;4854056;29;20034;-79
2021/07/30 04:38:28;;;;;;;9.77;5.65;;;13.10;99.90;;;;;;4839297;29;20159;-80
2021/07/30 04:40:54;;;;;;;8.40;5.80;;;13.10;99.90;;;;;;4854423;29;20074;-80
2021/07/30 04:43:19;;;;;;;11.75;6.00;;;13.00;99.90;;;;;;4849870;29;20615;-80
2021/07/30 04:45:45;;;;;;;7.47;5.45;;;13.00;99.90;;;;;;4836363;29;20030;-80
2021/07/30 04:48:11;;;;;;;7.10;4.32;;;13.00;99.90;;;;;;4842216;29;20061;-80
2021/07/30 04:50:36;;;;;;;5.60;4.25;;;13.10;99.90;;;;;;4855099;29;20069;-80
2021/07/30 04:53:02;;;;;;;6.60;4.00;;;13.10;99.90;;;;;;4854273;29;20034;-80
2021/07/30 04:55:28;;;;;;;5.85;3.20;;;13.20;99.90;;;;;;4854045;29;20042;-81
2021/07/30 04:57:53;;;;;;;6.75;3.08;;;13.20;99.90;;;;;;4854412;29;20073;-80
2021/07/30 05:00:22;;;;;;;5.90;2.90;;;13.30;99.90;;;;;;4853829;29;20112;-80
2021/07/30 05:02:51;;;;;;;7.40;2.90;;;13.40;99.90;;;;;;4866302;29;20041;-86
2021/07/30 05:05:17;;;;;;;7.50;2.78;;;13.50;99.90;;;;;;4891742;29;20553;-81
2021/07/30 05:07:43;;;;;;;7.13;2.50;;;13.60;99.90;;;;;;4891988;29;20056;-81
2021/07/30 05:10:09;;;;;;;6.22;2.47;;;13.70;99.90;;;;;;4893245;29;20040;-81
2021/07/30 05:12:35;;;;;;;6.00;2.40;;;13.70;99.90;;;;;;4891862;29;20075;-82
2021/07/30 05:15:01;;;;;;;8.55;3.13;;;13.80;99.90;;;;;;4877729;29;20053;-81
2021/07/30 05:17:26;;;;;;;6.00;2.33;;;13.80;99.90;;;;;;4892163;29;20502;-82
2021/07/30 05:19:52;;;;;;;6.10;2.72;;;13.90;99.90;;;;;;4890384;29;20033;-81
2021/07/30 05:22:21;;;;;;;7.85;2.38;;;13.90;99.90;;;;;;4875968;29;20037;-82
2021/07/30 05:24:46;;;;;;;7.10;3.45;;;14.00;99.90;;;;;;4876534;29;20120;-81
2021/07/30 05:27:12;;;;;;;5.75;2.80;;;14.00;99.90;;;;;;4876591;29;20056;-94
2021/07/30 05:29:37;;;;;;;7.85;2.88;;;14.10;99.90;;;;;;4875994;29;20048;-90
2021/07/30 05:32:03;;;;;;;4.40;2.70;;;14.20;99.90;;;;;;4876206;29;20122;-92
2021/07/30 05:34:30;;;;;;;5.07;3.20;;;14.10;99.90;;;;;;4906823;29;20165;-91
2021/07/30 05:36:56;;;;;;;6.03;3.17;;;14.20;99.90;;;;;;4891537;29;20042;-91
2021/07/30 05:39:21;;;;;;;6.32;2.78;;;14.20;99.90;;;;;;4890904;29;20066;-89
2021/07/30 05:41:47;;;;;;;7.07;3.05;;;14.30;99.90;;;;;;4860765;29;20036;-95
2021/07/30 05:44:15;;;;;;;8.05;3.55;;;14.40;99.90;;;;;;4876418;29;20037;-86
2021/07/30 05:46:41;;;;;;;6.88;3.17;;;14.50;99.90;;;;;;4888075;29;20081;-81
2021/07/30 05:49:07;;;;;;;9.35;3.22;;;14.70;99.90;;;;;;4883249;29;20052;-81
2021/07/30 05:51:37;;;;;;;6.85;2.35;;;14.80;99.90;;;;;;4909875;29;20039;-81
2021/07/30 05:54:02;;;;;;;;;;;15.00;99.90;;;;;;4894863;29;20040;-83
2021/07/30 05:56:28;;;;;;;5.55;2.42;;;15.00;99.90;;;;;;4879099;29;19936;-83
2021/07/30 05:58:54;;;;;;;6.63;2.58;;;15.20;99.90;;;;;;4911577;29;20071;-87
2021/07/30 06:01:19;;;;;;;5.53;2.35;;;15.30;99.90;;;;;;4878249;29;20021;-84
2021/07/30 06:03:45;;;;;;;4.47;2.53;;;15.50;99.90;;;;;;4875369;29;20037;-89
2021/07/30 06:06:10;;;;;;;5.82;2.92;;;15.60;99.90;;;;;;4875791;29;20033;-85
2021/07/30 06:08:36;;;;;;;7.05;2.63;;;15.60;99.90;;;;;;4892533;29;20039;-84
2021/07/30 06:11:04;;;;;;;10.82;4.00;;;15.60;99.90;;;;;;4875899;29;20034;-82
2021/07/30 06:13:30;;;;;;;9.10;2.67;;;15.80;99.90;;;;;;4875658;29;20180;-82
2021/07/30 06:15:55;;;;;;;6.45;2.78;;;16.00;99.90;;;;;;4881765;29;20081;-83
2021/07/30 06:18:21;;;;;;;7.93;2.90;;;16.10;99.90;;;;;;4894001;29;20032;-82
2021/07/30 06:20:46;;;;;;;6.40;2.42;;;16.30;99.90;;;;;;4878682;29;20036;-82
2021/07/30 06:23:12;;;;;;;5.00;2.33;;;16.40;99.90;;;;;;4910837;29;20021;-81
2021/07/30 06:25:38;;;;;;;10.02;3.03;;;16.40;99.90;;;;;;4894084;29;20142;-82
2021/07/30 06:28:03;;;;;;;6.35;3.20;;;16.40;99.90;;;;;;4894059;29;20032;-84
2021/07/30 06:30:29;;;;;;;8.50;3.97;;;16.30;99.90;;;;;;4894055;29;20152;-82
2021/07/30 06:32:55;;;;;;;8.05;4.07;;;16.40;99.90;;;;;;4910516;29;20028;-83
2021/07/30 06:35:20;;;;;;;7.50;2.65;;;16.50;99.90;;;;;;4893769;29;20048;-82
2021/07/30 06:37:47;;;;;;;5.32;2.45;;;16.60;99.90;;;;;;4862043;29;20037;-89
2021/07/30 06:40:13;;;;;;;7.57;2.83;;;16.80;99.90;;;;;;4891746;29;20044;-94
2021/07/30 06:42:40;;;;;;;5.53;2.85;;;17.00;99.90;;;;;;4892714;29;20112;-95
2021/07/30 06:45:06;;;;;;;5.97;3.22;;;17.20;99.90;;;;;;4875599;29;20041;-93
2021/07/30 06:47:36;;;;;;;6.07;2.33;;;17.40;99.90;;;;;;4890329;29;20029;-89
2021/07/30 06:50:04;;;;;;;4.03;2.38;;;17.40;99.90;;;;;;4887090;29;20061;-88
2021/07/30 06:52:31;;;;;;;5.20;1.85;;;17.50;99.90;;;;;;4874816;29;20473;-90
2021/07/30 06:54:57;;;;;;;4.75;2.55;;;17.60;99.90;;;;;;4859824;29;20100;-89
2021/07/30 06:57:22;;;;;;;6.13;2.22;;;17.60;99.90;;;;;;4875574;29;20025;-89
2021/07/30 06:59:49;;;;;;;4.55;1.90;;;17.80;99.90;;;;;;4890452;29;20398;-91
2021/07/30 07:02:15;;;;;;;7.20;2.00;;;17.90;99.90;;;;;;4890224;29;20509;-87
2021/07/30 07:04:41;;;;;;;5.65;1.67;;;18.00;99.90;;;;;;4890753;29;20446;-89
2021/07/30 07:07:06;;;;;;;4.90;1.80;;;18.40;99.90;;;;;;4890405;29;20041;-89
2021/07/30 07:09:32;;;;;;;6.78;1.83;;;18.20;99.90;;;;;;4891473;29;20037;-90
2021/07/30 07:11:58;;;;;;;5.50;2.28;;;18.30;99.90;;;;;;4890378;29;20097;-83
2021/07/30 07:14:23;;;;;;;4.85;2.05;;;18.30;99.90;;;;;;4890990;29;20056;-88
2021/07/30 07:16:49;;;;;;;5.97;1.55;;;18.40;99.90;;;;;;4903845;29;20044;-88
2021/07/30 07:19:15;;;;;;;3.78;1.70;;;18.40;99.90;;;;;;4878883;29;20057;-92
2021/07/30 07:21:40;;;;;;;5.28;2.10;;;18.30;99.90;;;;;;4893517;29;20040;-88
2021/07/30 07:24:07;;;;;;;3.75;1.33;;;18.40;99.90;;;;;;4911342;29;20080;-95
2021/07/30 07:26:36;;;;;;;2.72;1.25;;;18.60;99.90;;;;;;4879323;29;20032;-87
2021/07/30 07:29:04;;;;;;;4.82;1.60;;;18.70;99.90;;;;;;4894347;29;20490;-92
2021/07/30 07:31:29;;;;;;;3.75;1.63;;;18.90;99.90;;;;;;4896265;29;20048;-86
2021/07/30 07:33:55;;;;;;;5.53;2.10;;;18.80;99.90;;;;;;4896672;29;20028;-93
2021/07/30 07:36:24;;;;;;;3.35;1.08;;;18.80;99.90;;;;;;4872627;29;20032;-89
2021/07/30 07:38:49;;;;;;;6.47;1.00;;;18.90;99.90;;;;;;4889903;29;20116;-89
2021/07/30 07:41:15;;;;;;;4.40;0.90;;;19.20;99.90;;;;;;4890308;29;20025;-89
2021/07/30 07:43:41;;;;;;;3.45;1.23;;;19.50;99.90;;;;;;4890037;29;20072;-90
2021/07/30 07:46:07;;;;;;;4.43;1.00;;;19.30;99.90;;;;;;4890993;29;20029;-88
2021/07/30 07:48:32;;;;;;;4.40;1.13;;;19.50;99.90;;;;;;4892396;29;20052;-82
2021/07/30 07:50:58;;;;;;;3.85;1.45;;;19.70;99.90;;;;;;4908971;29;20036;-90
2021/07/30 07:53:24;;;;;;;6.40;1.45;;;20.00;99.90;;;;;;4910004;29;20040;-83
2021/07/30 07:56:03;;;;;;;5.53;1.70;;;20.10;99.90;;;;;;4909949;29;20104;-94
2021/07/30 07:58:30;;;;;;;3.20;0.75;;;20.10;99.90;;;;;;4908961;29;20033;-92
2021/07/30 08:00:56;;;;;;;4.68;1.50;;;20.00;99.90;;;;;;4892933;29;20076;-87
2021/07/30 08:03:21;;;;;;;4.25;1.45;;;19.80;99.90;;;;;;4911746;29;20028;-87
2021/07/30 08:05:47;;;;;;;6.07;1.25;;;19.50;99.90;;;;;;4914937;29;20025;-87
2021/07/30 08:08:12;;;;;;;3.97;1.15;;;19.60;99.90;;;;;;4914859;29;20042;-86
2021/07/30 08:10:38;;;;;;;5.38;0.90;;;19.70;99.90;;;;;;4914518;29;20033;-87
2021/07/30 08:13:04;;;;;;;5.57;1.40;;;19.80;99.90;;;;;;4899154;29;20146;-85
2021/07/30 08:15:29;;;;;;;3.50;1.35;;;19.80;99.90;;;;;;4917346;29;20035;-83
2021/07/30 08:17:55;;;;;;;3.53;0.70;;;20.20;99.90;;;;;;4902002;29;20078;-83
2021/07/30 08:20:20;;;;;;;2.70;0.70;;;20.20;99.90;;;;;;4917788;29;20036;-85
2021/07/30 08:22:46;;;;;;;4.63;1.00;;;20.50;99.90;;;;;;4935221;29;20028;-82
2021/07/30 08:25:12;;;;;;;4.40;1.02;;;20.40;99.90;;;;;;4902101;29;20036;-87
2021/07/30 08:27:39;;;;;;;2.30;0.77;;;20.50;99.90;;;;;;4902035;29;20079;-86
2021/07/30 08:30:05;;;;;;;4.28;0.90;;;21.10;99.90;;;;;;4901793;29;20123;-85
2021/07/30 08:32:32;;;;;;;3.00;0.80;;;21.40;99.90;;;;;;4901894;29;20043;-85
2021/07/30 08:34:58;;;;;;;4.35;0.88;;;21.30;99.90;;;;;;4901866;29;20048;-83
2021/07/30 08:37:23;;;;;;;3.22;0.90;;;21.60;99.90;;;;;;4889080;29;20028;-85
2021/07/30 08:39:49;;;;;;;3.17;0.88;;;21.90;99.90;;;;;;4915422;29;20032;-85
2021/07/30 08:42:15;;;;;;;3.65;0.60;;;21.90;99.90;;;;;;4883349;29;20074;-84
2021/07/30 08:44:41;;;;;;;2.65;0.50;;;21.90;99.90;;;;;;4898938;29;20112;-84
2021/07/30 08:47:09;;;;;;;3.75;0.70;;;22.10;99.90;;;;;;4883335;29;20029;-86
2021/07/30 08:49:35;;;;;;;3.95;0.68;;;22.00;99.90;;;;;;4899166;29;20226;-85
2021/07/30 08:52:10;;;;;;;2.92;0.60;;;22.40;99.90;;;;;;4899057;29;20052;-88
2021/07/30 08:54:36;;;;;;;3.95;0.65;;;22.50;99.90;;;;;;4915746;29;20063;-84
2021/07/30 08:57:07;;;;;;;3.17;0.60;;;22.20;99.90;;;;;;4898926;29;20303;-84
2021/07/30 08:59:33;;;;;;;2.53;0.57;;;22.30;99.90;;;;;;4883430;29;20032;-84
2021/07/30 09:01:58;;;;;;;1.63;0.50;;;22.60;99.90;;;;;;4883490;29;20040;-86
2021/07/30 09:04:28;;;;;;;3.25;0.55;;;22.40;99.90;;;;;;4899266;29;20032;-84
2021/07/30 09:06:54;;;;;;;;;;;22.60;99.90;;;;;;4899503;29;20036;-87
2021/07/30 09:09:20;;;;;;;2.50;0.50;;;22.50;99.90;;;;;;4898946;29;19915;-83
2021/07/30 09:11:45;;;;;;;1.92;0.50;;;22.40;99.90;;;;;;4898647;29;20037;-84
2021/07/30 09:14:12;;;;;;;2.35;0.63;;;22.40;99.90;;;;;;4897175;29;20067;-84
2021/07/30 09:16:46;;;;;;;2.40;0.40;;;22.40;99.90;;;;;;4891277;29;20036;-84
2021/07/30 09:19:12;;;;;;;2.35;0.40;;;22.50;99.90;;;;;;4915296;29;20028;-84
2021/07/30 09:21:38;;;;;;;2.03;0.50;;;22.90;99.90;;;;;;4914893;29;20032;-85
2021/07/30 09:24:20;;;;;;;1.92;0.40;;;23.00;99.90;;;;;;4914482;29;20036;-86
2021/07/30 09:26:50;;;;;;;3.33;0.50;;;22.80;99.90;;;;;;4914205;29;20038;-87
2021/07/30 09:29:19;;;;;;;3.20;0.60;;;23.30;99.90;;;;;;4898808;29;20032;-84
2021/07/30 09:32:12;;;;;;;3.65;0.40;;;23.00;99.90;;;;;;4899015;29;20104;-83
2021/07/30 09:34:44;;;;;;;2.60;0.60;;;23.30;99.90;;;;;;4898637;29;20086;-85
2021/07/30 09:37:29;;;;;;;3.72;0.50;;;23.20;99.90;;;;;;4903552;29;20059;-84
2021/07/30 09:39:54;;;;;;;2.88;0.88;;;23.50;99.90;;;;;;4895711;29;20037;-87
2021/07/30 09:42:41;;;;;;;1.55;0.47;;;23.70;99.90;;;;;;4895668;29;20521;-84
2021/07/30 09:45:13;;;;;;;4.28;0.60;;;23.70;99.90;;;;;;4894577;29;20081;-86
2021/07/30 09:47:50;;;;;;;1.88;0.50;;;23.50;99.90;;;;;;4879415;29;20032;-84
2021/07/30 09:50:16;;;;;;;2.40;0.60;;;23.50;99.90;;;;;;4895188;29;20063;-85
2021/07/30 09:52:42;;;;;;;2.45;0.47;;;23.80;99.90;;;;;;4879908;29;20068;-85
2021/07/30 09:55:12;;;;;;;1.02;0.40;;;24.20;99.90;;;;;;4894823;29;20418;-86
2021/07/30 09:57:40;;;;;;;11.38;0.88;;;24.70;99.90;;;;;;4894679;29;20060;-86
2021/07/30 10:00:08;;;;;;;4.18;0.50;;;24.90;99.90;;;;;;4894548;29;20060;-84
2021/07/30 10:02:36;;;;;;;2.08;0.50;;;24.80;99.90;;;;;;4878902;29;20036;-83
2021/07/30 10:05:11;;;;;;;1.50;0.32;;;24.70;99.90;;;;;;4879118;29;20024;-83
2021/07/30 10:07:39;;;;;;;2.45;0.50;;;24.20;99.90;;;;;;4878829;29;20043;-82
2021/07/30 10:13:01;;;;;;;3.67;0.63;;;23.90;99.90;;;;;;4907522;29;20060;-82
2021/07/30 10:15:28;;;;;;;1.73;0.40;;;23.50;99.90;;;;;;4878742;29;20059;-83
2021/07/30 10:17:56;;;;;;;3.47;0.40;;;24.10;99.90;;;;;;4893963;29;20033;-84
2021/07/30 10:20:23;;;;;;;4.90;0.50;;;25.00;99.90;;;;;;4894151;29;20043;-83
2021/07/30 10:23:12;;;;;;;2.20;0.40;;;25.70;99.90;;;;;;4894119;29;20035;-83
2021/07/30 10:25:49;;;;;;;2.13;0.60;;;25.80;99.90;;;;;;4893895;29;20088;-84
2021/07/30 10:28:25;;;;;;;1.08;0.40;;;25.20;99.90;;;;;;4894072;29;20033;-83
2021/07/30 10:30:58;;;;;;;1.98;0.40;;;25.40;99.90;;;;;;4894193;29;20040;-83
2021/07/30 10:33:30;;;;;;;2.25;0.40;;;25.00;99.90;;;;;;4893989;29;20073;-84
2021/07/30 10:36:03;;;;;;;2.42;0.40;;;24.80;99.90;;;;;;4893725;29;20068;-83
2021/07/30 10:38:29;;;;;;;3.30;0.55;;;24.50;99.90;;;;;;4894101;29;20036;-83
2021/07/30 10:41:07;;;;;;;1.65;0.40;;;24.50;99.90;;;;;;4878380;29;20148;-83
2021/07/30 10:44:01;;;;;;;2.25;0.40;;;24.80;99.90;;;;;;4910619;29;20043;-83
2021/07/30 10:47:07;;;;;;;1.20;0.30;;;25.50;99.90;;;;;;4893353;29;20068;-82
2021/07/30 10:49:40;;;;;;;2.00;0.40;;;25.90;99.90;;;;;;4815518;29;20046;-83
2021/07/30 10:52:24;;;;;;;1.40;0.30;;;25.10;99.90;;;;;;4828567;29;20096;-82
2021/07/30 10:54:49;;;;;;;1.30;0.40;;;25.40;99.90;;;;;;4818782;29;20065;-84
2021/07/30 10:57:53;;;;;;;4.28;0.40;;;25.00;99.90;;;;;;4818674;29;20098;-83
2021/07/30 11:00:19;;;;;;;2.05;0.40;;;25.40;99.90;;;;;;4818760;29;20095;-86
2021/07/30 11:03:05;;;;;;;1.80;0.45;;;25.10;99.90;;;;;;4834231;29;20034;-87
2021/07/30 11:05:31;;;;;;;3.30;0.60;;;24.50;99.90;;;;;;4819379;29;20030;-85
2021/07/30 11:08:01;;;;;;;2.28;0.50;;;24.50;99.90;;;;;;4819975;29;20076;-87
2021/07/30 11:10:27;;;;;;;1.60;0.50;;;24.20;99.90;;;;;;4817315;29;20076;-86
2021/07/30 11:12:56;;;;;;;7.13;1.00;;;24.20;99.90;;;;;;4834047;29;20054;-86
2021/07/30 11:15:30;;;;;;;3.13;0.47;;;24.50;99.90;;;;;;4820688;29;20404;-86
2021/07/30 11:18:00;;;;;;;2.03;0.45;;;24.30;99.90;;;;;;4851995;29;20042;-86
2021/07/30 11:20:32;;;;;;;2.00;0.50;;;23.80;99.90;;;;;;4837017;29;20065;-86
2021/07/30 11:23:02;;;;;;;2.38;0.40;;;23.50;99.90;;;;;;4837110;29;20042;-88
2021/07/30 11:25:28;;;;;;;1.70;0.35;;;23.90;99.90;;;;;;4848513;29;20115;-86
2021/07/30 11:27:58;;;;;;;2.17;0.85;;;24.20;99.90;;;;;;4893103;29;20028;-86
2021/07/30 11:30:28;;;;;;;1.00;0.40;;;24.00;99.90;;;;;;4905783;29;20040;-87
2021/07/30 11:32:53;;;;;;;1.42;0.50;;;24.20;99.90;;;;;;4912106;29;20131;-88
2021/07/30 11:35:20;;;;;;;0.73;0.30;;;24.70;99.90;;;;;;4911998;29;20056;-86
2021/07/30 11:37:46;;;;;;;1.55;0.40;;;24.50;99.90;;;;;;4895159;29;20037;-87
2021/07/30 11:40:15;;;;;;;1.05;0.30;;;24.60;99.90;;;;;;4877535;29;20122;-87
2021/07/30 11:42:41;;;;;;;;;;;24.50;99.90;;;;;;4877929;29;20039;-85
2021/07/30 11:45:07;;;;;;;1.27;0.40;;;24.00;99.90;;;;;;4892958;29;19998;-87
2021/07/30 11:47:34;;;;;;;1.98;0.40;;;24.40;99.90;;;;;;4906818;23;20365;-86
2021/07/30 11:50:07;;;;;;;1.80;0.40;;;25.30;99.90;;;;;;4931205;29;20224;-86
2021/07/30 11:52:34;;;;;;;1.52;0.50;;;25.50;99.90;;;;;;4915336;29;20385;-86
2021/07/30 11:55:19;;;;;;;1.15;0.40;;;26.10;99.90;;;;;;4915406;29;20099;-86
2021/07/30 11:57:45;;;;;;;1.85;0.40;;;26.20;99.90;;;;;;4915076;29;20440;-85
2021/07/30 12:00:21;;;;;;;2.38;0.40;;;26.10;99.90;;;;;;4947944;29;20115;-86
2021/07/30 12:02:46;;;;;;;1.10;0.50;;;25.70;99.90;;;;;;4915410;29;20035;-85
2021/07/30 12:05:12;;;;;;;2.58;0.50;;;25.20;99.90;;;;;;4915135;29;20091;-86
2021/07/30 12:07:39;;;;;;;7.82;0.90;;;25.50;99.90;;;;;;4931041;29;20040;-85
2021/07/30 12:10:07;;;;;;;4.45;0.70;;;25.60;99.90;;;;;;4914902;29;20031;-85
2021/07/30 12:12:38;;;;;;;4.18;0.75;;;25.50;99.90;;;;;;4914969;29;20035;-86
2021/07/30 12:15:04;;;;;;;6.55;0.70;;;25.70;99.90;;;;;;4930686;29;20136;-85
2021/07/30 12:17:31;;;;;;;2.45;0.60;;;26.10;99.90;;;;;;4949299;29;20460;-87
2021/07/30 12:20:02;;;;;;;6.18;0.80;;;26.10;99.90;;;;;;4965116;29;20479;-86
2021/07/30 12:22:40;;;;;;;2.67;0.40;;;26.50;99.90;;;;;;4949491;29;20042;-87
2021/07/30 12:25:09;;;;;;;3.13;0.50;;;26.40;99.90;;;;;;4949530;29;20154;-85
2021/07/30 12:27:35;;;;;;;1.13;0.40;;;26.40;99.90;;;;;;4949729;29;20041;-86
2021/07/30 12:30:00;;;;;;;1.70;0.50;;;26.60;99.90;;;;;;4965652;29;20106;-86
2021/07/30 12:32:36;;;;;;;1.27;0.38;;;26.20;99.90;;;;;;4965527;29;20036;-86
2021/07/30 12:35:05;;;;;;;1.65;0.60;;;26.40;99.90;;;;;;4949337;29;20400;-85
2021/07/30 12:37:32;;;;;;;4.85;0.82;;;25.60;99.90;;;;;;4934873;29;20078;-85
2021/07/30 12:40:00;;;;;;;2.75;0.50;;;25.40;99.90;;;;;;4930099;29;20024;-86
2021/07/30 12:42:32;;;;;;;2.30;0.75;;;25.10;99.90;;;;;;4930312;29;20039;-87
2021/07/30 12:45:07;;;;;;;1.63;0.50;;;25.10;99.90;;;;;;4914531;29;20070;-87
2021/07/30 12:47:34;;;;;;;2.25;0.50;;;24.80;99.90;;;;;;4914249;29;20514;-88
2021/07/30 12:50:21;;;;;;;1.02;0.43;;;24.60;99.90;;;;;;4948925;29;20043;-86
2021/07/30 12:53:06;;;;;;;4.15;0.60;;;24.70;99.90;;;;;;4917975;29;20035;-87
2021/07/30 12:55:58;;;;;;;2.55;0.50;;;24.90;99.90;;;;;;4909710;29;20064;-90